Time;durP1;ratioP1;P1;durP2;ratioP2;P2;SDS_P1;SDS_P2;PMS_P1;PMS_P2;Temp;Humidity;BMP_temperature;BMP_pressure;BME280_temperature;BME280_humidity;BME280_pressure;Samples;Min_cycle;Max_cycle;Signal;HPM_P1;HPM_P2
2024/01/09 00:02:13;;;;;;;0.03;0.03;;;-3.80;1.00;;;;;;5079683;28;20131;-83
2024/01/09 00:04:38;;;;;;;0.87;0.77;;;-3.80;99.90;;;;;;5072688;28;20048;-83
2024/01/09 00:07:04;;;;;;;0.00;0.00;;;-3.80;1.00;;;;;;5101903;28;20413;-83
2024/01/09 00:09:33;;;;;;;0.00;0.00;;;-3.80;99.90;;;;;;5096552;28;20052;-83
2024/01/09 00:11:58;;;;;;;0.10;0.10;;;-4.00;99.90;;;;;;5100005;28;20079;-83
2024/01/09 00:14:24;;;;;;;0.00;0.00;;;-4.10;99.90;;;;;;5096110;28;20055;-83
2024/01/09 00:16:50;;;;;;;0.00;0.00;;;-4.00;99.90;;;;;;5095668;28;20044;-83
2024/01/09 00:19:16;;;;;;;0.00;0.00;;;-4.00;1.00;;;;;;5075745;28;20044;-83
2024/01/09 00:21:42;;;;;;;0.00;0.00;;;-4.00;99.90;;;;;;5077122;28;20044;-83
2024/01/09 00:24:07;;;;;;;0.10;0.10;;;-4.10;1.00;;;;;;5099144;28;20047;-84
2024/01/09 00:26:40;;;;;;;0.10;0.10;;;-4.10;17.70;;;;;;5093782;28;20040;-84
2024/01/09 00:29:06;;;;;;;0.10;0.10;;;-4.30;72.10;;;;;;5065177;28;20104;-83
2024/01/09 00:31:31;;;;;;;0.00;0.00;;;-4.30;99.90;;;;;;5080355;28;20114;-83
2024/01/09 00:33:57;;;;;;;0.00;0.00;;;-4.30;99.90;;;;;;5069577;28;20082;-84
2024/01/09 00:36:24;;;;;;;0.10;0.10;;;-4.20;1.00;;;;;;5097759;28;20040;-83
2024/01/09 00:38:50;;;;;;;0.00;0.00;;;-3.70;1.00;;;;;;5069765;28;20048;-84
2024/01/09 00:41:15;;;;;;;0.10;0.10;;;-4.30;1.00;;;;;;5096476;28;20044;-84
2024/01/09 00:43:41;;;;;;;0.63;0.63;;;-4.30;1.00;;;;;;5099559;28;20106;-84
2024/01/09 00:46:07;;;;;;;0.00;0.00;;;-4.30;23.60;;;;;;5066705;28;20131;-83
2024/01/09 00:48:32;;;;;;;0.20;0.20;;;-4.30;50.00;;;;;;5071191;28;20052;-84
2024/01/09 00:50:58;;;;;;;0.00;0.00;;;-3.40;6.00;;;;;;5077280;28;20050;-84
2024/01/09 00:53:24;;;;;;;0.00;0.00;;;-4.40;95.20;;;;;;5095626;28;20044;-84
2024/01/09 00:55:49;;;;;;;0.10;0.10;;;-4.40;99.90;;;;;;5070689;28;20040;-84
2024/01/09 00:58:15;;;;;;;0.10;0.10;;;-4.40;99.90;;;;;;5074966;28;20438;-84
2024/01/09 01:00:40;;;;;;;0.10;0.10;;;-4.40;99.90;;;;;;5067648;28;20056;-84
2024/01/09 01:03:06;;;;;;;0.00;0.00;;;-4.40;99.90;;;;;;5094921;28;20060;-84
2024/01/09 01:05:33;;;;;;;0.00;0.00;;;-4.40;99.90;;;;;;5065411;28;20481;-84
2024/01/09 01:07:59;;;;;;;0.00;0.00;;;-4.30;73.70;;;;;;5094410;28;20048;-84
2024/01/09 01:10:24;;;;;;;0.10;0.10;;;-4.00;75.10;;;;;;5071890;28;20048;-84
2024/01/09 01:12:50;;;;;;;0.47;0.47;;;-4.40;99.90;;;;;;5092897;28;20048;-84
2024/01/09 01:15:16;;;;;;;0.00;0.00;;;-4.40;99.90;;;;;;5068660;28;20650;-84
2024/01/09 01:17:42;;;;;;;0.40;0.40;;;-4.40;99.90;;;;;;5091988;28;20485;-84
2024/01/09 01:20:08;;;;;;;0.07;0.07;;;-4.30;99.90;;;;;;5092493;28;20088;-84
2024/01/09 01:22:34;;;;;;;0.10;0.10;;;-4.40;99.90;;;;;;5094306;28;20067;-85
2024/01/09 01:24:59;;;;;;;0.00;0.00;;;-4.40;99.90;;;;;;5063694;28;20528;-84
2024/01/09 01:27:25;;;;;;;1.23;1.13;;;-4.40;99.90;;;;;;5067527;28;20071;-84
2024/01/09 01:29:51;;;;;;;0.10;0.10;;;-4.50;99.90;;;;;;5066390;28;20432;-85
2024/01/09 01:32:16;;;;;;;2.47;0.40;;;-4.50;99.90;;;;;;5065375;28;20048;-85
2024/01/09 01:34:42;;;;;;;0.30;0.30;;;-4.50;99.90;;;;;;5069817;28;20039;-85
2024/01/09 01:37:07;;;;;;;0.20;0.20;;;-4.50;99.90;;;;;;5068101;28;20094;-84
2024/01/09 01:39:33;;;;;;;0.00;0.00;;;-4.50;99.90;;;;;;5064262;28;20047;-84
2024/01/09 01:41:59;;;;;;;0.10;0.10;;;-4.50;99.90;;;;;;5064216;28;20046;-85
2024/01/09 01:44:24;;;;;;;0.00;0.00;;;-4.50;99.90;;;;;;5039940;28;20087;-85
2024/01/09 01:46:50;;;;;;;0.00;0.00;;;-4.50;99.90;;;;;;5071740;28;20346;-85
2024/01/09 01:49:18;;;;;;;0.00;0.00;;;-4.50;99.90;;;;;;5064553;28;20052;-85
2024/01/09 01:51:46;;;;;;;0.30;0.30;;;-4.50;99.90;;;;;;5065880;28;20051;-85
2024/01/09 01:54:13;;;;;;;0.30;0.13;;;-4.50;99.90;;;;;;5104498;28;20053;-85
2024/01/09 01:56:40;;;;;;;0.07;0.07;;;-4.50;66.40;;;;;;5088568;28;20047;-85
2024/01/09 01:59:06;;;;;;;0.55;0.55;;;-4.50;99.90;;;;;;5090003;28;20451;-86
2024/01/09 02:01:31;;;;;;;0.33;0.33;;;-4.50;99.90;;;;;;5066909;28;20047;-85
2024/01/09 02:03:58;;;;;;;0.10;0.10;;;-4.50;73.90;;;;;;5068697;28;20422;-86
2024/01/09 02:06:24;;;;;;;3.10;1.80;;;-4.50;69.80;;;;;;5073575;28;20512;-85
2024/01/09 02:08:50;;;;;;;0.10;0.10;;;-4.50;44.30;;;;;;5062331;28;20033;-85
2024/01/09 02:11:15;;;;;;;0.00;0.00;;;-4.50;53.00;;;;;;5100202;28;20097;-85
2024/01/09 02:13:41;;;;;;;0.00;0.00;;;-4.50;27.80;;;;;;5094448;28;20420;-85
2024/01/09 02:16:07;;;;;;;0.50;0.50;;;-4.50;5.20;;;;;;5069555;28;20051;-86
2024/01/09 02:18:32;;;;;;;0.13;0.13;;;-4.50;1.00;;;;;;5073063;28;20953;-86
2024/01/09 02:20:58;;;;;;;0.10;0.10;;;-4.50;1.00;;;;;;5067895;28;20079;-86
2024/01/09 02:23:23;;;;;;;0.07;0.07;;;-4.50;1.00;;;;;;5059415;28;20036;-86
2024/01/09 02:25:50;;;;;;;0.20;0.20;;;-4.40;99.90;;;;;;5066870;28;20094;-86
2024/01/09 02:28:26;;;;;;;0.00;0.00;;;-4.40;1.00;;;;;;5078991;28;20052;-86
2024/01/09 02:30:55;;;;;;;;;;;-4.50;1.00;;;;;;5068357;28;20854;-86
2024/01/09 02:33:21;;;;;;;0.08;0.08;;;-4.50;99.90;;;;;;5067632;28;19928;-86
2024/01/09 02:35:47;;;;;;;0.00;0.00;;;-4.50;99.90;;;;;;5097705;28;20047;-86
2024/01/09 02:38:12;;;;;;;0.00;0.00;;;-4.50;1.00;;;;;;5078055;28;20044;-86
2024/01/09 02:40:38;;;;;;;0.20;0.20;;;-4.40;99.90;;;;;;5062262;28;20078;-86
2024/01/09 02:43:05;;;;;;;0.00;0.00;;;-4.50;99.90;;;;;;5091335;28;20051;-86
2024/01/09 02:45:30;;;;;;;0.10;0.10;;;-4.50;99.90;;;;;;5066970;28;20054;-86
2024/01/09 02:47:56;;;;;;;0.10;0.10;;;-4.60;99.90;;;;;;5074252;28;20043;-86
2024/01/09 02:50:22;;;;;;;0.10;0.10;;;-4.60;99.90;;;;;;5094017;28;20036;-86
2024/01/09 02:52:48;;;;;;;0.00;0.00;;;-4.50;99.90;;;;;;5070492;28;20112;-86
2024/01/09 02:55:14;;;;;;;0.20;0.20;;;-4.60;99.90;;;;;;5068930;28;20439;-86
2024/01/09 02:57:40;;;;;;;0.00;0.00;;;-4.70;99.90;;;;;;5058392;28;20080;-86
2024/01/09 03:00:10;;;;;;;0.00;0.00;;;-4.70;99.90;;;;;;5073769;28;20075;-86
2024/01/09 03:02:36;;;;;;;0.00;0.00;;;-4.60;99.90;;;;;;5093318;28;20052;-87
2024/01/09 03:05:06;;;;;;;0.00;0.00;;;-4.60;99.90;;;;;;5083439;28;20047;-86
2024/01/09 03:07:33;;;;;;;0.00;0.00;;;-4.70;99.90;;;;;;5065279;28;20052;-86
2024/01/09 03:09:58;;;;;;;0.10;0.10;;;-4.70;99.90;;;;;;5095916;28;20048;-86
2024/01/09 03:12:24;;;;;;;0.00;0.00;;;-4.70;99.90;;;;;;5093997;28;20071;-86
2024/01/09 03:14:50;;;;;;;0.00;0.00;;;-4.70;99.90;;;;;;5050731;28;20606;-86
2024/01/09 03:17:15;;;;;;;0.10;0.10;;;-4.70;37.60;;;;;;5083370;28;20252;-86
2024/01/09 03:19:43;;;;;;;0.00;0.00;;;-4.70;2.00;;;;;;5061507;28;20047;-86
2024/01/09 03:22:08;;;;;;;0.00;0.00;;;-4.80;99.90;;;;;;5102034;28;20294;-86
2024/01/09 03:24:34;;;;;;;0.10;0.10;;;-4.70;99.90;;;;;;5093683;28;20040;-86
2024/01/09 03:27:00;;;;;;;0.00;0.00;;;-4.70;99.90;;;;;;5066526;28;20084;-86
2024/01/09 03:29:25;;;;;;;0.10;0.10;;;-4.80;99.90;;;;;;5070743;28;20107;-87
2024/01/09 03:31:51;;;;;;;0.00;0.00;;;-4.80;99.90;;;;;;5097105;28;20374;-86
2024/01/09 03:34:17;;;;;;;0.00;0.00;;;-3.80;99.90;;;;;;5068081;28;20568;-86
2024/01/09 03:36:44;;;;;;;0.47;0.47;;;-4.80;99.90;;;;;;5068888;28;20374;-86
2024/01/09 03:39:11;;;;;;;2.40;1.23;;;-4.90;99.90;;;;;;5069280;28;20496;-86
2024/01/09 03:41:37;;;;;;;0.10;0.10;;;-5.00;99.90;;;;;;5075769;28;20055;-86
2024/01/09 03:44:03;;;;;;;0.00;0.00;;;-5.00;99.90;;;;;;5068686;28;20039;-86
2024/01/09 03:46:28;;;;;;;0.10;0.10;;;-4.90;1.00;;;;;;5068068;28;20051;-86
2024/01/09 03:48:54;;;;;;;0.68;0.60;;;-5.00;1.00;;;;;;5049284;28;20043;-86
2024/01/09 03:51:20;;;;;;;0.83;0.77;;;-5.10;1.00;;;;;;5067183;28;20135;-85
2024/01/09 03:53:45;;;;;;;0.20;0.20;;;-5.10;1.00;;;;;;5095983;28;20489;-86
2024/01/09 03:56:11;;;;;;;0.63;0.63;;;-5.00;1.00;;;;;;5066924;28;20054;-86
2024/01/09 03:58:37;;;;;;;0.60;0.60;;;-5.10;1.00;;;;;;5091070;28;20043;-86
2024/01/09 04:01:03;;;;;;;0.00;0.00;;;-5.10;59.90;;;;;;5091994;28;20059;-86
2024/01/09 04:03:28;;;;;;;0.00;0.00;;;-5.20;25.40;;;;;;5065133;28;20048;-86
2024/01/09 04:05:54;;;;;;;0.10;0.10;;;-5.20;99.90;;;;;;5091845;28;20080;-85
2024/01/09 04:08:20;;;;;;;0.10;0.10;;;-5.20;99.90;;;;;;5065920;28;20459;-86
2024/01/09 04:10:45;;;;;;;0.00;0.00;;;-5.10;93.10;;;;;;5068034;28;20044;-86
2024/01/09 04:13:11;;;;;;;0.00;0.00;;;-5.20;30.50;;;;;;5071643;28;20060;-86
2024/01/09 04:15:38;;;;;;;0.30;0.30;;;-5.20;99.90;;;;;;5066252;28;20052;-85
2024/01/09 04:18:03;;;;;;;0.53;0.53;;;-5.20;99.90;;;;;;5071194;28;20701;-86
2024/01/09 04:20:29;;;;;;;0.20;0.20;;;-5.20;1.40;;;;;;5097224;28;20092;-86
2024/01/09 04:22:54;;;;;;;0.10;0.10;;;-5.20;1.00;;;;;;5068571;28;20486;-85
2024/01/09 04:25:20;;;;;;;0.30;0.30;;;-5.20;1.00;;;;;;5095616;28;20044;-86
2024/01/09 04:27:46;;;;;;;0.00;0.00;;;-5.10;1.00;;;;;;5068210;28;20105;-86
2024/01/09 04:30:11;;;;;;;1.23;0.40;;;-5.20;27.30;;;;;;5073234;28;20524;-85
2024/01/09 04:32:37;;;;;;;0.00;0.00;;;-5.20;1.00;;;;;;5065388;28;20043;-85
2024/01/09 04:35:03;;;;;;;0.00;0.00;;;-5.20;1.00;;;;;;5093226;28;20105;-85
2024/01/09 04:37:29;;;;;;;0.00;0.00;;;-5.30;1.00;;;;;;5071549;28;20082;-86
2024/01/09 04:39:54;;;;;;;1.60;1.03;;;-5.30;1.00;;;;;;5049689;28;20040;-85
2024/01/09 04:42:20;;;;;;;0.10;0.10;;;-5.20;99.90;;;;;;5073086;28;20036;-86
2024/01/09 04:44:45;;;;;;;1.07;1.07;;;-5.30;1.00;;;;;;5091093;28;20052;-86
2024/01/09 04:47:15;;;;;;;0.10;0.10;;;-5.30;1.00;;;;;;5066482;28;20051;-85
2024/01/09 04:49:42;;;;;;;0.00;0.00;;;-5.30;1.00;;;;;;5094764;28;20048;-85
2024/01/09 04:52:08;;;;;;;0.33;0.33;;;-5.30;1.00;;;;;;5067966;28;20176;-86
2024/01/09 04:54:33;;;;;;;0.00;0.00;;;-5.40;99.90;;;;;;5082398;28;20106;-86
2024/01/09 04:56:59;;;;;;;0.37;0.37;;;-5.40;1.00;;;;;;5065330;28;20044;-86
2024/01/09 04:59:25;;;;;;;4.03;2.30;;;-5.40;1.00;;;;;;5092372;28;20044;-86
2024/01/09 05:01:50;;;;;;;0.00;0.00;;;-5.50;1.00;;;;;;5072567;28;20490;-86
2024/01/09 05:04:16;;;;;;;0.10;0.10;;;-5.30;99.90;;;;;;5091616;28;20056;-86
2024/01/09 05:06:42;;;;;;;0.20;0.20;;;-5.40;99.90;;;;;;5091112;28;20490;-86
2024/01/09 05:09:07;;;;;;;0.07;0.07;;;-5.40;1.00;;;;;;5090824;28;20066;-86
2024/01/09 05:11:33;;;;;;;0.60;0.60;;;-5.50;1.00;;;;;;5064016;28;20040;-86
2024/01/09 05:13:58;;;;;;;0.10;0.10;;;-5.40;1.00;;;;;;5072390;28;20036;-86
2024/01/09 05:16:26;;;;;;;0.00;0.00;;;-5.50;99.90;;;;;;5063909;28;20047;-86
2024/01/09 05:18:51;;;;;;;5.40;1.80;;;-5.50;1.00;;;;;;5066672;28;20091;-86
2024/01/09 05:21:17;;;;;;;0.00;0.00;;;-5.50;1.00;;;;;;5048675;28;20088;-86
2024/01/09 05:23:42;;;;;;;0.10;0.10;;;-5.50;99.90;;;;;;5045829;28;20044;-87
2024/01/09 05:26:08;;;;;;;0.00;0.00;;;-5.50;99.90;;;;;;5072291;28;20048;-86
2024/01/09 05:28:34;;;;;;;0.00;0.00;;;-5.60;1.00;;;;;;5063722;28;20478;-86
2024/01/09 05:31:01;;;;;;;0.03;0.03;;;-5.60;1.00;;;;;;5050335;28;20537;-86
2024/01/09 05:33:27;;;;;;;0.23;0.23;;;-5.60;1.00;;;;;;5057700;28;20546;-86
2024/01/09 05:35:52;;;;;;;0.10;0.10;;;-5.60;99.90;;;;;;5050534;28;20043;-86
2024/01/09 05:38:18;;;;;;;0.10;0.10;;;-5.60;1.00;;;;;;5064866;28;20052;-87
2024/01/09 05:40:43;;;;;;;0.17;0.17;;;-5.60;1.00;;;;;;5067265;28;20043;-86
2024/01/09 05:43:09;;;;;;;2.67;1.37;;;-5.60;99.90;;;;;;5104508;28;20047;-86
2024/01/09 05:45:35;;;;;;;0.00;0.00;;;-5.60;1.00;;;;;;5073635;28;20062;-87
2024/01/09 05:48:00;;;;;;;3.13;1.35;;;-5.70;1.00;;;;;;5050257;28;20543;-87
2024/01/09 05:50:26;;;;;;;0.10;0.10;;;-5.70;99.90;;;;;;5061908;28;20040;-85
2024/01/09 05:52:51;;;;;;;1.10;1.10;;;-5.70;1.00;;;;;;5056619;28;20048;-85
2024/01/09 05:55:17;;;;;;;0.17;0.17;;;-5.70;99.90;;;;;;5067457;28;20532;-85
2024/01/09 05:57:43;;;;;;;0.20;0.20;;;-5.70;1.00;;;;;;5074387;28;20047;-85
2024/01/09 06:00:09;;;;;;;0.00;0.00;;;-5.70;99.90;;;;;;5058632;28;20059;-85
2024/01/09 06:02:35;;;;;;;0.10;0.10;;;-5.70;99.90;;;;;;5041169;28;20525;-84
2024/01/09 06:05:02;;;;;;;1.30;0.83;;;-5.70;99.90;;;;;;5063721;28;20055;-85
2024/01/09 06:07:27;;;;;;;1.50;0.70;;;-5.70;99.90;;;;;;5087424;28;20130;-85
2024/01/09 06:09:54;;;;;;;0.10;0.10;;;-5.70;61.10;;;;;;5059056;28;20048;-85
2024/01/09 06:12:19;;;;;;;0.10;0.10;;;-5.70;1.00;;;;;;5055183;28;20056;-85
2024/01/09 06:14:45;;;;;;;0.07;0.07;;;-5.80;61.10;;;;;;5062673;28;20105;-85
2024/01/09 06:17:12;;;;;;;0.10;0.10;;;-5.80;99.90;;;;;;5057959;28;20051;-85
2024/01/09 06:19:37;;;;;;;0.00;0.00;;;-5.80;99.90;;;;;;5058931;28;20060;-85
2024/01/09 06:22:03;;;;;;;0.00;0.00;;;-5.80;99.90;;;;;;5058840;28;20149;-85
2024/01/09 06:24:29;;;;;;;0.10;0.10;;;-5.90;99.90;;;;;;5065238;28;21060;-85
2024/01/09 06:26:54;;;;;;;0.00;0.00;;;-5.80;99.90;;;;;;5060394;28;20044;-86
2024/01/09 06:29:22;;;;;;;0.00;0.00;;;-5.90;99.90;;;;;;5058599;28;20165;-85
2024/01/09 06:31:48;;;;;;;0.23;0.23;;;-5.90;99.90;;;;;;5055426;28;20359;-85
2024/01/09 06:34:14;;;;;;;0.13;0.13;;;-5.90;1.00;;;;;;5083660;28;20608;-85
2024/01/09 06:36:40;;;;;;;0.00;0.00;;;-6.00;1.00;;;;;;5082278;28;20607;-85
2024/01/09 06:39:05;;;;;;;0.00;0.00;;;-5.90;99.90;;;;;;5061059;28;20131;-85
2024/01/09 06:41:31;;;;;;;0.10;0.10;;;-5.90;99.90;;;;;;5087892;28;20039;-85
2024/01/09 06:43:57;;;;;;;0.10;0.10;;;-5.90;6.70;;;;;;5061560;28;20047;-85
2024/01/09 06:46:22;;;;;;;0.10;0.10;;;-5.90;1.00;;;;;;5076835;28;20039;-84
2024/01/09 06:48:48;;;;;;;0.00;0.00;;;-5.90;99.90;;;;;;5070075;28;21043;-85
2024/01/09 06:51:13;;;;;;;0.17;0.17;;;-5.90;99.90;;;;;;5088142;28;20044;-85
2024/01/09 06:53:39;;;;;;;0.00;0.00;;;-5.90;99.90;;;;;;5077862;28;20051;-85
2024/01/09 06:56:05;;;;;;;0.00;0.00;;;-6.00;99.90;;;;;;5067573;28;20040;-85
2024/01/09 06:58:31;;;;;;;0.03;0.03;;;-6.00;99.90;;;;;;5061887;28;20461;-85
2024/01/09 07:00:57;;;;;;;0.57;0.57;;;-6.00;99.90;;;;;;5100961;28;20056;-85
2024/01/09 07:03:22;;;;;;;0.00;0.00;;;-6.00;66.70;;;;;;5057855;28;20151;-85
2024/01/09 07:05:48;;;;;;;0.03;0.03;;;-6.00;64.90;;;;;;5055979;28;20126;-85
2024/01/09 07:08:14;;;;;;;0.10;0.10;;;-6.00;99.90;;;;;;5053823;28;20133;-85
2024/01/09 07:10:39;;;;;;;0.03;0.03;;;-6.00;99.90;;;;;;5086615;28;20039;-85
2024/01/09 07:13:05;;;;;;;1.40;1.40;;;-6.00;1.00;;;;;;5091924;28;20036;-85
2024/01/09 07:15:30;;;;;;;0.30;0.30;;;-6.00;1.00;;;;;;5078934;28;20040;-85
2024/01/09 07:17:56;;;;;;;0.00;0.00;;;-6.00;1.00;;;;;;5052025;28;20056;-85
2024/01/09 07:20:21;;;;;;;0.10;0.10;;;-6.10;99.90;;;;;;5061936;28;20043;-84
2024/01/09 07:22:48;;;;;;;0.00;0.00;;;-6.00;1.00;;;;;;5059518;28;20075;-86
2024/01/09 07:25:14;;;;;;;0.00;0.00;;;-6.10;1.00;;;;;;5092739;28;20602;-85
2024/01/09 07:27:40;;;;;;;0.17;0.17;;;-5.90;99.90;;;;;;5066154;28;20472;-85
2024/01/09 07:30:07;;;;;;;0.20;0.20;;;-6.20;99.90;;;;;;5101289;28;20036;-85
2024/01/09 07:32:33;;;;;;;0.00;0.00;;;-6.10;1.00;;;;;;5081980;28;20078;-85
2024/01/09 07:34:59;;;;;;;0.00;0.00;;;-6.10;1.00;;;;;;5058301;28;20041;-85
2024/01/09 07:37:24;;;;;;;0.00;0.00;;;-6.10;99.90;;;;;;5062003;28;20104;-85
2024/01/09 07:39:50;;;;;;;0.20;0.20;;;-6.10;99.90;;;;;;5068302;28;20123;-84
2024/01/09 07:42:15;;;;;;;0.00;0.00;;;-6.10;99.90;;;;;;5100628;28;20075;-84
2024/01/09 07:44:41;;;;;;;0.00;0.00;;;-6.10;8.30;;;;;;5103690;28;20118;-84
2024/01/09 07:47:11;;;;;;;1.13;1.13;;;-6.10;99.90;;;;;;5065999;28;20077;-85
2024/01/09 07:49:38;;;;;;;0.10;0.10;;;-6.00;99.90;;;;;;5063341;28;20052;-84
2024/01/09 07:52:04;;;;;;;0.00;0.00;;;-6.10;99.90;;;;;;5064278;28;20048;-84
2024/01/09 07:54:30;;;;;;;0.10;0.10;;;-6.10;99.90;;;;;;5071552;28;20043;-84
2024/01/09 07:56:56;;;;;;;0.53;0.53;;;-6.10;99.90;;;;;;5073624;28;20480;-84
2024/01/09 07:59:22;;;;;;;0.03;0.03;;;-6.10;99.90;;;;;;5067053;28;20105;-84
2024/01/09 08:01:54;;;;;;;0.10;0.10;;;-6.10;99.90;;;;;;5092505;28;20048;-84
2024/01/09 08:04:23;;;;;;;0.10;0.10;;;-6.10;99.90;;;;;;5063567;28;20443;-84
2024/01/09 08:06:50;;;;;;;0.00;0.00;;;-6.00;99.90;;;;;;5096865;28;20090;-84
2024/01/09 08:09:19;;;;;;;0.10;0.10;;;-6.00;1.00;;;;;;5089864;28;20054;-84
2024/01/09 08:11:45;;;;;;;0.10;0.10;;;-5.90;99.90;;;;;;5087201;28;20443;-84
2024/01/09 08:14:12;;;;;;;0.00;0.00;;;-5.90;1.00;;;;;;5096440;28;20508;-84
2024/01/09 08:16:38;;;;;;;0.00;0.00;;;-5.90;99.90;;;;;;5059655;28;20067;-84
2024/01/09 08:19:06;;;;;;;0.53;0.53;;;-5.90;99.90;;;;;;5107402;28;20052;-84
2024/01/09 08:21:32;;;;;;;0.73;0.73;;;-5.80;99.90;;;;;;5098958;28;20460;-84
2024/01/09 08:23:57;;;;;;;0.10;0.10;;;-5.70;99.90;;;;;;5098981;28;20126;-84
2024/01/09 08:26:23;;;;;;;0.00;0.00;;;-5.80;1.00;;;;;;5065183;28;20087;-84
2024/01/09 08:28:49;;;;;;;1.00;1.00;;;-5.70;1.00;;;;;;5096018;28;20493;-83
2024/01/09 08:31:16;;;;;;;0.10;0.10;;;-5.70;1.00;;;;;;5092882;28;20111;-84
2024/01/09 08:33:41;;;;;;;0.00;0.00;;;-5.60;1.00;;;;;;5078340;28;20044;-84
2024/01/09 08:36:07;;;;;;;0.10;0.10;;;-5.60;1.00;;;;;;5072914;28;20050;-84
2024/01/09 08:38:33;;;;;;;0.77;0.77;;;-5.50;1.00;;;;;;5108116;28;20039;-83
2024/01/09 08:40:58;;;;;;;0.00;0.00;;;-5.00;99.90;;;;;;5099278;28;20637;-83
2024/01/09 08:43:24;;;;;;;0.10;0.10;;;-5.50;99.90;;;;;;5089606;28;20401;-84
2024/01/09 08:45:50;;;;;;;1.03;0.47;;;-5.40;99.90;;;;;;5096434;28;20043;-83
2024/01/09 08:48:17;;;;;;;0.00;0.00;;;-5.40;99.90;;;;;;5081380;28;20055;-83
2024/01/09 08:50:43;;;;;;;0.53;0.53;;;-5.40;99.90;;;;;;5102025;28;20053;-83
2024/01/09 08:53:09;;;;;;;1.33;1.27;;;-5.40;99.90;;;;;;5093123;28;20048;-83
2024/01/09 08:55:35;;;;;;;0.10;0.10;;;-5.40;99.90;;;;;;5065147;28;20515;-83
2024/01/09 08:58:00;;;;;;;0.10;0.10;;;-5.30;99.90;;;;;;5097798;28;20116;-83
2024/01/09 09:00:26;;;;;;;0.00;0.00;;;-5.30;99.90;;;;;;5099189;28;20048;-83
2024/01/09 09:02:52;;;;;;;0.00;0.00;;;-5.30;99.90;;;;;;5101289;28;20058;-83
2024/01/09 09:05:18;;;;;;;0.00;0.00;;;-5.20;99.90;;;;;;5073240;28;20044;-83
2024/01/09 09:07:43;;;;;;;0.17;0.17;;;-5.10;99.90;;;;;;5105934;28;20051;-83
2024/01/09 09:10:09;;;;;;;0.10;0.10;;;-5.10;99.90;;;;;;5081791;28;20056;-83
2024/01/09 09:12:35;;;;;;;0.67;0.67;;;-5.90;99.90;;;;;;5102743;28;20052;-83
2024/01/09 09:15:04;;;;;;;0.53;0.53;;;-5.00;99.90;;;;;;5102658;28;20047;-84
2024/01/09 09:17:30;;;;;;;0.00;0.00;;;-5.00;99.90;;;;;;5058138;28;20052;-83
2024/01/09 09:19:57;;;;;;;0.00;0.00;;;-5.00;99.90;;;;;;5087649;28;20077;-83
2024/01/09 09:22:25;;;;;;;0.00;0.00;;;-4.90;99.90;;;;;;5080235;28;20047;-83
2024/01/09 09:24:52;;;;;;;2.53;0.87;;;-4.80;99.90;;;;;;5106807;28;20047;-83
2024/01/09 09:27:18;;;;;;;1.70;1.63;;;-4.80;56.20;;;;;;5107750;28;20051;-83
2024/01/09 09:29:44;;;;;;;0.00;0.00;;;-4.70;79.70;;;;;;5074160;28;20092;-83
2024/01/09 09:32:09;;;;;;;0.13;0.13;;;-4.70;15.10;;;;;;5092357;28;20458;-83
2024/01/09 09:34:35;;;;;;;0.00;0.00;;;-4.60;27.30;;;;;;5100099;28;20093;-83
2024/01/09 09:37:00;;;;;;;0.00;0.00;;;-4.60;1.00;;;;;;5059129;28;20044;-82
2024/01/09 09:39:26;;;;;;;0.20;0.20;;;-4.50;1.00;;;;;;5095040;28;20393;-82
2024/01/09 09:41:59;;;;;;;0.20;0.20;;;-4.40;1.00;;;;;;5104320;28;20043;-83
2024/01/09 09:44:26;;;;;;;0.10;0.10;;;-4.30;1.00;;;;;;5072722;28;20052;-83
2024/01/09 09:46:51;;;;;;;0.00;0.00;;;-4.20;1.00;;;;;;5086699;28;20058;-83
2024/01/09 09:49:20;;;;;;;0.10;0.10;;;-4.20;1.00;;;;;;5094796;28;20060;-83
2024/01/09 09:51:47;;;;;;;0.00;0.00;;;-4.10;1.00;;;;;;5102527;28;20058;-82
2024/01/09 09:54:14;;;;;;;0.00;0.00;;;-4.10;1.00;;;;;;5101330;28;20577;-83
2024/01/09 09:56:41;;;;;;;0.10;0.10;;;-4.00;1.00;;;;;;5112763;28;20146;-82
2024/01/09 09:59:10;;;;;;;0.00;0.00;;;-4.00;1.00;;;;;;5104213;28;20085;-82
2024/01/09 10:01:37;;;;;;;0.10;0.10;;;-3.90;1.00;;;;;;5109844;28;20036;-82
2024/01/09 10:04:31;;;;;;;0.43;0.37;;;-3.80;1.00;;;;;;5094951;28;20096;-83
2024/01/09 10:06:58;;;;;;;0.20;0.20;;;-3.80;1.00;;;;;;5085422;28;20048;-83
2024/01/09 10:09:33;;;;;;;0.00;0.00;;;-3.80;1.00;;;;;;5073517;28;20062;-82
2024/01/09 10:11:59;;;;;;;0.00;0.00;;;-3.70;1.00;;;;;;5088945;28;20032;-82
2024/01/09 10:14:24;;;;;;;0.47;0.43;;;-3.70;1.00;;;;;;5106088;28;20080;-82
2024/01/09 10:16:54;;;;;;;0.83;0.83;;;-3.70;1.00;;;;;;5091869;28;20040;-82
2024/01/09 10:19:23;;;;;;;0.10;0.10;;;-3.60;1.00;;;;;;5073272;28;20044;-83
2024/01/09 10:21:49;;;;;;;0.00;0.00;;;-3.60;1.00;;;;;;5100633;28;20051;-82
2024/01/09 10:24:16;;;;;;;0.00;0.00;;;-3.60;1.00;;;;;;5077995;28;20551;-82
2024/01/09 10:26:42;;;;;;;0.00;0.00;;;-3.50;1.00;;;;;;5099946;28;20047;-83
2024/01/09 10:29:12;;;;;;;0.10;0.10;;;-3.50;99.90;;;;;;5103419;28;20066;-82
2024/01/09 10:31:40;;;;;;;1.50;0.50;;;-3.40;1.00;;;;;;5111960;28;20299;-82
2024/01/09 10:34:07;;;;;;;0.40;0.40;;;-3.30;1.00;;;;;;5071676;28;20699;-82
2024/01/09 10:36:32;;;;;;;0.00;0.00;;;-3.30;99.90;;;;;;5083104;28;20054;-82
2024/01/09 10:39:05;;;;;;;0.00;0.00;;;-3.30;99.90;;;;;;5062947;28;20044;-82
2024/01/09 10:41:31;;;;;;;0.10;0.10;;;-3.20;99.90;;;;;;5100942;28;20054;-82
2024/01/09 10:43:59;;;;;;;0.23;0.23;;;-3.10;99.90;;;;;;5099350;28;20049;-81
2024/01/09 10:46:29;;;;;;;0.77;0.47;;;-3.10;99.90;;;;;;5107815;28;20560;-82
2024/01/09 10:48:57;;;;;;;1.93;1.57;;;-3.00;99.90;;;;;;5107761;28;20076;-82
2024/01/09 10:51:23;;;;;;;0.23;0.23;;;-3.00;99.90;;;;;;5084863;28;20049;-82
2024/01/09 10:53:50;;;;;;;0.10;0.10;;;-2.90;99.90;;;;;;5100036;28;20036;-82
2024/01/09 10:56:18;;;;;;;0.67;0.67;;;-2.90;99.90;;;;;;5108077;28;20056;-82
2024/01/09 10:58:49;;;;;;;0.07;0.07;;;-2.80;99.90;;;;;;5074156;28;20154;-82
2024/01/09 11:01:15;;;;;;;0.00;0.00;;;-2.80;99.90;;;;;;5075299;28;20073;-81
2024/01/09 11:03:41;;;;;;;0.10;0.10;;;-2.70;99.90;;;;;;5105353;28;20054;-81
2024/01/09 11:06:09;;;;;;;0.70;0.70;;;-2.70;99.90;;;;;;5081227;28;20071;-82
2024/01/09 11:08:35;;;;;;;0.08;0.08;;;-2.70;99.90;;;;;;5102818;28;20048;-82
2024/01/09 11:11:08;;;;;;;0.00;0.00;;;-2.60;99.90;;;;;;5102323;28;20044;-81
2024/01/09 11:13:38;;;;;;;1.40;0.83;;;-2.50;99.90;;;;;;5109228;28;20215;-82
2024/01/09 11:16:06;;;;;;;2.20;1.70;;;-2.50;99.90;;;;;;5103376;28;20514;-82
2024/01/09 11:18:33;;;;;;;0.00;0.00;;;-2.50;99.90;;;;;;5099831;28;20155;-81
2024/01/09 11:21:03;;;;;;;0.00;0.00;;;-2.50;99.90;;;;;;5105109;28;20120;-81
2024/01/09 11:23:51;;;;;;;0.20;0.20;;;-2.40;99.90;;;;;;5104739;28;20043;-81
2024/01/09 11:26:18;;;;;;;0.13;0.13;;;-2.40;99.90;;;;;;5089127;28;20107;-81
2024/01/09 11:28:45;;;;;;;0.00;0.00;;;-2.40;99.90;;;;;;5112579;28;20051;-81
2024/01/09 11:31:20;;;;;;;0.00;0.00;;;-2.30;99.90;;;;;;5073651;28;20044;-81
2024/01/09 11:33:51;;;;;;;0.00;0.00;;;-2.30;99.90;;;;;;5098405;28;20052;-82
2024/01/09 11:36:33;;;;;;;0.33;0.33;;;-2.20;99.90;;;;;;5108724;28;20109;-81
2024/01/09 11:38:59;;;;;;;0.00;0.00;;;-2.20;99.90;;;;;;5100806;28;20204;-81
2024/01/09 11:41:32;;;;;;;0.07;0.07;;;-2.10;99.90;;;;;;5080009;28;20074;-81
2024/01/09 11:44:04;;;;;;;0.00;0.00;;;-2.10;99.90;;;;;;5098111;28;20052;-81
2024/01/09 11:46:37;;;;;;;0.30;0.30;;;-2.10;99.90;;;;;;5100022;28;20036;-81
2024/01/09 11:49:04;;;;;;;0.00;0.00;;;-2.10;99.90;;;;;;5101009;28;20054;-81
2024/01/09 11:51:31;;;;;;;0.40;0.40;;;-2.00;99.90;;;;;;5092352;28;20044;-81
2024/01/09 11:54:00;;;;;;;0.07;0.07;;;-2.00;99.90;;;;;;5102790;28;20035;-81
2024/01/09 11:56:27;;;;;;;1.03;0.83;;;-2.00;99.90;;;;;;5104321;28;20048;-81
2024/01/09 11:58:53;;;;;;;0.00;0.00;;;-1.30;1.00;;;;;;5106209;28;20039;-81
2024/01/09 12:01:20;;;;;;;0.10;0.10;;;-1.80;1.00;;;;;;5102207;28;20046;-81
2024/01/09 12:03:51;;;;;;;3.83;1.80;;;-1.80;99.90;;;;;;5092182;28;20509;-81
2024/01/09 12:06:17;;;;;;;0.00;0.00;;;-1.70;1.00;;;;;;5104168;28;20040;-81
2024/01/09 12:08:43;;;;;;;0.00;0.00;;;-1.70;1.00;;;;;;5106533;28;20062;-80
2024/01/09 12:11:09;;;;;;;0.10;0.10;;;-1.60;1.00;;;;;;5074761;28;20103;-80
2024/01/09 12:13:35;;;;;;;0.10;0.10;;;-1.60;1.00;;;;;;5081037;28;20069;-80
2024/01/09 12:16:00;;;;;;;0.00;0.00;;;-1.60;1.00;;;;;;5117251;28;20047;-81
2024/01/09 12:18:26;;;;;;;0.10;0.10;;;-1.50;1.00;;;;;;5099529;28;20126;-80
2024/01/09 12:20:52;;;;;;;1.03;0.93;;;-1.40;1.00;;;;;;5081812;28;20051;-81
2024/01/09 12:23:19;;;;;;;0.00;0.00;;;-1.20;1.00;;;;;;5117623;28;20055;-80
2024/01/09 12:25:48;;;;;;;0.20;0.20;;;-1.10;1.00;;;;;;5110275;28;20093;-81
2024/01/09 12:28:14;;;;;;;0.40;0.40;;;-1.00;1.00;;;;;;5112999;28;20035;-81
2024/01/09 12:30:39;;;;;;;0.00;0.00;;;-0.90;1.00;;;;;;5084939;28;20117;-81
2024/01/09 12:33:05;;;;;;;0.10;0.10;;;-0.90;1.00;;;;;;5065041;28;20039;-80
2024/01/09 12:35:31;;;;;;;0.20;0.20;;;-0.80;1.00;;;;;;5092169;28;20063;-80
2024/01/09 12:37:57;;;;;;;0.00;0.00;;;-0.80;1.00;;;;;;5101792;28;20047;-81
2024/01/09 12:40:22;;;;;;;0.00;0.00;;;-0.70;1.00;;;;;;5105048;28;20132;-80
2024/01/09 12:43:09;;;;;;;0.00;0.00;;;-0.70;1.00;;;;;;5102640;28;20043;-80
2024/01/09 12:45:35;;;;;;;;;;;-0.60;1.00;;;;;;5087081;28;20074;-80
2024/01/09 12:48:02;;;;;;;3.22;2.03;;;-0.50;1.00;;;;;;5099624;28;19919;-80